createdAt,value
2022-10-11T04:02:40.742Z,101531.00
2022-10-11T04:05:09.816Z,101532.00
2022-10-11T04:07:37.739Z,101540.00
2022-10-11T04:10:07.503Z,101532.00
2022-10-11T04:12:35.760Z,101535.00
2022-10-11T04:15:12.536Z,101546.00
2022-10-11T04:17:42.361Z,101526.00
2022-10-11T04:20:11.674Z,101524.00
2022-10-11T04:22:39.706Z,101555.00
2022-10-11T04:25:10.216Z,101546.00
2022-10-11T04:27:38.207Z,101550.00
2022-10-11T04:30:08.221Z,101552.00
2022-10-11T04:32:36.189Z,101559.00
2022-10-11T04:35:06.541Z,101557.00
2022-10-11T04:37:34.557Z,101553.00
2022-10-11T04:40:02.624Z,101563.00
2022-10-11T04:42:30.585Z,101556.00
2022-10-11T04:44:58.538Z,101565.00
2022-10-11T04:47:26.715Z,101555.00
2022-10-11T04:49:54.649Z,101562.00
2022-10-11T04:52:25.940Z,101556.00
2022-10-11T04:54:54.236Z,101573.00
2022-10-11T04:57:22.159Z,101575.00
2022-10-11T04:59:50.495Z,101576.00
2022-10-11T05:02:18.662Z,101571.00
2022-10-11T05:04:46.644Z,101583.00
2022-10-11T05:07:14.807Z,101584.00
2022-10-11T05:09:44.124Z,101581.00
2022-10-11T05:12:12.182Z,101589.00
2022-10-11T05:14:40.286Z,101586.00
2022-10-11T05:17:08.253Z,101599.00
2022-10-11T05:19:36.235Z,101596.00
2022-10-11T05:22:04.295Z,101595.00
2022-10-11T05:24:32.376Z,101607.00
2022-10-11T05:27:03.576Z,101605.00
2022-10-11T05:29:31.696Z,101616.00
2022-10-11T05:31:59.710Z,101619.00
2022-10-11T05:34:27.795Z,101628.00
2022-10-11T05:36:56.378Z,101633.00
2022-10-11T05:39:24.333Z,101626.00
2022-10-11T05:41:52.827Z,101626.00
2022-10-11T05:44:22.179Z,101632.00
2022-10-11T05:46:50.089Z,101635.00
2022-10-11T05:49:18.583Z,101640.00
2022-10-11T05:51:46.815Z,101641.00
2022-10-11T05:54:14.754Z,101629.00
2022-10-11T05:56:43.607Z,101654.00
2022-10-11T05:59:11.581Z,101648.00
2022-10-11T06:01:41.258Z,101651.00
2022-10-11T06:04:09.818Z,101656.00
2022-10-11T06:06:37.763Z,101638.00
2022-10-11T06:09:06.349Z,101657.00
2022-10-11T06:11:34.807Z,101646.00
2022-10-11T06:14:02.746Z,101662.00
2022-10-11T06:16:30.741Z,101667.00
2022-10-11T06:19:00.027Z,101669.00
2022-10-11T06:21:27.978Z,101668.00
2022-10-11T06:24:01.211Z,101681.00
2022-10-11T06:26:30.413Z,101684.00
2022-10-11T06:28:59.687Z,101685.00
2022-10-11T06:31:27.871Z,101696.00
2022-10-11T06:33:55.852Z,101699.00
2022-10-11T06:36:25.428Z,101704.00
2022-10-11T06:38:53.557Z,101698.00
2022-10-11T06:41:24.732Z,101698.00
2022-10-11T06:43:53.444Z,101708.00
2022-10-11T06:46:24.361Z,101699.00
2022-10-11T06:48:52.808Z,101702.00
2022-10-11T06:51:24.731Z,101706.00
2022-10-11T06:53:57.733Z,101694.00
2022-10-11T06:56:27.865Z,101711.00
2022-10-11T06:58:57.635Z,101714.00
2022-10-11T07:01:27.355Z,101720.00
2022-10-11T07:03:58.133Z,101727.00
2022-10-11T07:06:30.474Z,101721.00
2022-10-11T07:09:00.872Z,101735.00
2022-10-11T07:11:29.737Z,101738.00
2022-10-11T07:14:01.953Z,101743.00
2022-10-11T07:16:30.027Z,101742.00
2022-10-11T07:19:01.205Z,101749.00
2022-10-11T07:21:33.271Z,101747.00
2022-10-11T07:24:02.920Z,101744.00
2022-10-11T07:26:38.245Z,101749.00
2022-10-11T07:29:08.303Z,101757.00
2022-10-11T07:31:38.640Z,101757.00
2022-10-11T07:34:06.697Z,101769.00
2022-10-11T07:36:36.068Z,101763.00
2022-10-11T07:39:05.206Z,101773.00
2022-10-11T07:41:33.139Z,101769.00
2022-10-11T07:44:01.438Z,101777.00
2022-10-11T07:46:29.482Z,101787.00
2022-10-11T07:48:57.531Z,101779.00
2022-10-11T07:51:25.944Z,101785.00
2022-10-11T07:53:57.664Z,101789.00
2022-10-11T07:56:28.477Z,101787.00
2022-10-11T07:58:59.192Z,101793.00
2022-10-11T08:01:28.891Z,101771.00
2022-10-11T08:03:57.788Z,101786.00
2022-10-11T08:06:32.383Z,101782.00
2022-10-11T08:09:03.195Z,101785.00
2022-10-11T08:11:34.445Z,101785.00
2022-10-11T08:14:05.180Z,101796.00
2022-10-11T08:16:33.512Z,101806.00
2022-10-11T08:19:03.021Z,101803.00
2022-10-11T08:21:32.187Z,101803.00
2022-10-11T08:24:04.660Z,101805.00
2022-10-11T08:26:33.287Z,101804.00
2022-10-11T08:29:03.330Z,101804.00
2022-10-11T08:31:32.277Z,101809.00
2022-10-11T08:34:00.348Z,101801.00
2022-10-11T08:36:28.413Z,101808.00
2022-10-11T08:38:56.365Z,101812.00
2022-10-11T08:41:32.630Z,101817.00
2022-10-11T08:44:20.996Z,101819.00
2022-10-11T08:47:00.448Z,101814.00
2022-10-11T08:49:34.235Z,101820.00
2022-10-11T08:52:07.123Z,101820.00
2022-10-11T08:54:44.789Z,101825.00
2022-10-11T08:57:19.072Z,101826.00
2022-10-11T08:59:52.176Z,101829.00
2022-10-11T09:03:03.140Z,101834.00
2022-10-11T09:05:31.223Z,101834.00
2022-10-11T09:08:09.108Z,101835.00
2022-10-11T09:10:58.665Z,101849.00
2022-10-11T09:13:52.483Z,101844.00
2022-10-11T09:16:40.086Z,101842.00
2022-10-11T09:19:50.789Z,101846.00
2022-10-11T09:22:30.193Z,101846.00
2022-10-11T09:25:18.069Z,101848.00
2022-10-11T09:28:02.740Z,101846.00
2022-10-11T09:30:34.552Z,101849.00
2022-10-11T09:33:17.359Z,101851.00
2022-10-11T09:35:49.261Z,101855.00
2022-10-11T09:38:31.977Z,101853.00
2022-10-11T09:41:15.705Z,101850.00
2022-10-11T09:43:48.781Z,101855.00
2022-10-11T09:46:25.702Z,101848.00
2022-10-11T09:48:58.245Z,101840.00
2022-10-11T09:51:29.563Z,101842.00
2022-10-11T09:54:01.378Z,101851.00
2022-10-11T09:56:31.683Z,101850.00
2022-10-11T09:59:27.948Z,101849.00
2022-10-11T10:02:25.463Z,101845.00
2022-10-11T10:05:03.859Z,101846.00
2022-10-11T10:07:34.489Z,101858.00
2022-10-11T10:10:30.971Z,101856.00
2022-10-11T10:13:02.300Z,101858.00
2022-10-11T10:15:32.848Z,101855.00
2022-10-11T10:18:03.960Z,101859.00
2022-10-11T10:20:36.207Z,101869.00
2022-10-11T10:23:18.423Z,101860.00
2022-10-11T10:25:52.186Z,101864.00
2022-10-11T10:28:24.858Z,101869.00
2022-10-11T10:30:56.640Z,101876.00
2022-10-11T10:33:30.648Z,101856.00
2022-10-11T10:36:06.683Z,101863.00
2022-10-11T10:38:41.601Z,101871.00
2022-10-11T10:41:13.779Z,101874.00
2022-10-11T10:43:46.614Z,101871.00
2022-10-11T10:46:40.297Z,101875.00
2022-10-11T10:49:48.326Z,101876.00
2022-10-11T10:52:43.579Z,101878.00
2022-10-11T10:55:25.691Z,101879.00
2022-10-11T10:58:14.012Z,101873.00
2022-10-11T11:00:49.316Z,101886.00
2022-10-11T11:03:28.866Z,101878.00
2022-10-11T11:06:05.989Z,101881.00
2022-10-11T11:08:55.024Z,101881.00
2022-10-11T11:11:54.575Z,101882.00
2022-10-11T11:14:37.755Z,101887.00
2022-10-11T11:17:18.192Z,101887.00
2022-10-11T11:20:04.105Z,101886.00
2022-10-11T11:22:51.235Z,101895.00
2022-10-11T11:25:31.680Z,101883.00
2022-10-11T11:28:27.192Z,101882.00
2022-10-11T11:31:08.116Z,101880.00
2022-10-11T11:33:51.177Z,101887.00
2022-10-11T11:36:28.858Z,101891.00
2022-10-11T11:39:05.488Z,101882.00
2022-10-11T11:41:48.978Z,101887.00
2022-10-11T11:44:27.258Z,101888.00
2022-10-11T11:47:02.915Z,101882.00
2022-10-11T11:49:37.337Z,101888.00
2022-10-11T11:52:07.691Z,101884.00
2022-10-11T11:54:58.079Z,101873.00
2022-10-11T11:57:44.884Z,101873.00
2022-10-11T12:00:19.959Z,101880.00
2022-10-11T12:02:55.803Z,101881.00
2022-10-11T12:05:27.960Z,101862.00
2022-10-11T12:08:01.546Z,101862.00
2022-10-11T12:10:38.464Z,101870.00
2022-10-11T12:13:21.377Z,101872.00
2022-10-11T12:16:01.632Z,101869.00
2022-10-11T12:18:31.679Z,101872.00
2022-10-11T12:21:06.893Z,101862.00
2022-10-11T12:23:48.647Z,101863.00
2022-10-11T12:26:45.095Z,101864.00
2022-10-11T12:29:48.815Z,101878.00
2022-10-11T12:32:54.369Z,101870.00
2022-10-11T12:36:05.604Z,101872.00
2022-10-11T12:38:41.791Z,101872.00
2022-10-11T12:41:51.527Z,101876.00
2022-10-11T12:44:26.246Z,101876.00
2022-10-11T12:47:34.817Z,101872.00
2022-10-11T12:50:17.682Z,101873.00
2022-10-11T12:53:01.293Z,101879.00
2022-10-11T12:55:47.764Z,101873.00
2022-10-11T12:58:30.307Z,101845.00
2022-10-11T13:01:18.574Z,101873.00
2022-10-11T13:04:08.893Z,101869.00
2022-10-11T13:06:46.947Z,101871.00
2022-10-11T13:09:26.008Z,101873.00
2022-10-11T13:11:59.850Z,101873.00
2022-10-11T13:14:33.346Z,101845.00
2022-10-11T13:17:14.921Z,101865.00
2022-10-11T13:19:43.223Z,101872.00
2022-10-11T13:22:19.275Z,101872.00
2022-10-11T13:24:47.292Z,101876.00
2022-10-11T13:27:22.140Z,101870.00
2022-10-11T13:29:55.296Z,101874.00
2022-10-11T13:32:27.321Z,101881.00
2022-10-11T13:34:59.057Z,101881.00
2022-10-11T13:37:30.081Z,101885.00
2022-10-11T13:40:00.307Z,101876.00
2022-10-11T13:42:32.471Z,101878.00
2022-10-11T13:45:02.705Z,101874.00
2022-10-11T13:47:32.783Z,101874.00
2022-10-11T13:50:12.946Z,101863.00
2022-10-11T13:52:58.282Z,101875.00
2022-10-11T13:55:34.523Z,101870.00
2022-10-11T13:58:11.984Z,101864.00
2022-10-11T14:00:56.003Z,101861.00
2022-10-11T14:03:29.623Z,101862.00
2022-10-11T14:06:00.644Z,101860.00
2022-10-11T14:08:36.054Z,101864.00
2022-10-11T14:11:06.613Z,101871.00
2022-10-11T14:13:41.876Z,101862.00
2022-10-11T14:16:28.589Z,101879.00
2022-10-11T14:19:09.883Z,101881.00
2022-10-11T14:21:52.399Z,101878.00
2022-10-11T14:24:20.975Z,101874.00
2022-10-11T14:26:52.385Z,101854.00
2022-10-11T14:29:26.154Z,101880.00
2022-10-11T14:32:01.935Z,101873.00
2022-10-11T14:34:31.327Z,101878.00
2022-10-11T14:36:59.542Z,101870.00
2022-10-11T14:39:31.006Z,101875.00
2022-10-11T14:41:59.295Z,101876.00
2022-10-11T14:44:27.619Z,101877.00
2022-10-11T14:46:57.079Z,101870.00
2022-10-11T14:49:27.991Z,101872.00
2022-10-11T14:51:58.561Z,101870.00
2022-10-11T14:54:29.067Z,101879.00
2022-10-11T14:57:00.055Z,101878.00
2022-10-11T14:59:35.129Z,101877.00
2022-10-11T15:02:07.684Z,101877.00
2022-10-11T15:04:36.036Z,101879.00
2022-10-11T15:07:05.502Z,101870.00
2022-10-11T15:09:33.495Z,101881.00
2022-10-11T15:12:01.528Z,101870.00
2022-10-11T15:14:29.589Z,101880.00
2022-10-11T15:16:57.533Z,101882.00
2022-10-11T15:19:27.067Z,101876.00
2022-10-11T15:21:55.065Z,101883.00
2022-10-11T15:24:23.099Z,101878.00
2022-10-11T15:26:51.596Z,101876.00
2022-10-11T15:29:21.839Z,101870.00
2022-10-11T15:31:51.475Z,101880.00
2022-10-11T15:34:19.540Z,101874.00
2022-10-11T15:36:49.949Z,101877.00
2022-10-11T15:39:27.753Z,101865.00
2022-10-11T15:41:55.850Z,101869.00
2022-10-11T15:44:23.810Z,101875.00
2022-10-11T15:46:51.842Z,101876.00
2022-10-11T15:49:19.973Z,101885.00
2022-10-11T15:51:49.256Z,101881.00
2022-10-11T15:54:17.336Z,101877.00
2022-10-11T15:56:45.397Z,101879.00
2022-10-11T15:59:13.368Z,101876.00
2022-10-11T16:01:42.191Z,101882.00
2022-10-11T16:04:11.005Z,101857.00
2022-10-11T16:06:40.868Z,101884.00
2022-10-11T16:09:10.158Z,101879.00
2022-10-11T16:11:38.234Z,101881.00
2022-10-11T16:14:06.259Z,101885.00
2022-10-11T16:16:34.308Z,101888.00
2022-10-11T16:19:02.377Z,101883.00
2022-10-11T16:21:30.399Z,101877.00
2022-10-11T16:23:58.930Z,101885.00
2022-10-11T16:26:28.357Z,101883.00
2022-10-11T16:28:57.612Z,101880.00
2022-10-11T16:31:25.651Z,101879.00
2022-10-11T16:33:53.806Z,101885.00
2022-10-11T16:36:35.961Z,101883.00
2022-10-11T16:39:09.207Z,101890.00
2022-10-11T16:41:38.989Z,101889.00
2022-10-11T16:44:07.704Z,101886.00
2022-10-11T16:46:36.123Z,101891.00
2022-10-11T16:49:05.498Z,101885.00
2022-10-11T16:51:33.572Z,101890.00
2022-10-11T16:54:02.451Z,101890.00
2022-10-11T16:56:32.529Z,101903.00
2022-10-11T16:59:04.317Z,101880.00
2022-10-11T17:01:32.417Z,101893.00
2022-10-11T17:04:00.399Z,101889.00
2022-10-11T17:06:28.477Z,101899.00
2022-10-11T17:08:56.880Z,101901.00
2022-10-11T17:11:25.405Z,101909.00
2022-10-11T17:13:54.246Z,101896.00
2022-10-11T17:16:24.278Z,101896.00
2022-10-11T17:18:52.495Z,101904.00
2022-10-11T17:21:22.637Z,101908.00
2022-10-11T17:23:50.831Z,101888.00
2022-10-11T17:26:23.214Z,101901.00
2022-10-11T17:28:51.313Z,101897.00
2022-10-11T17:31:19.451Z,101909.00
2022-10-11T17:33:49.430Z,101901.00
2022-10-11T17:36:23.416Z,101914.00
2022-10-11T17:38:53.957Z,101912.00
2022-10-11T17:41:22.053Z,101907.00
2022-10-11T17:43:50.178Z,101914.00
2022-10-11T17:46:21.385Z,101908.00
2022-10-11T17:48:54.877Z,101911.00
2022-10-11T17:51:23.425Z,101912.00
2022-10-11T17:53:52.287Z,101913.00
2022-10-11T17:56:28.774Z,101910.00
2022-10-11T17:58:59.775Z,101919.00
2022-10-11T18:01:30.228Z,101905.00
2022-10-11T18:04:01.997Z,101906.00
2022-10-11T18:06:34.267Z,101904.00
2022-10-11T18:09:04.954Z,101906.00
2022-10-11T18:11:33.776Z,101905.00
2022-10-11T18:14:02.319Z,101911.00
2022-10-11T18:16:33.034Z,101913.00
2022-10-11T18:19:05.276Z,101912.00
2022-10-11T18:21:34.805Z,101907.00
2022-10-11T18:24:07.604Z,101905.00
2022-10-11T18:26:36.041Z,101902.00
2022-10-11T18:29:05.142Z,101902.00
2022-10-11T18:31:35.128Z,101910.00
2022-10-11T18:34:06.624Z,101909.00
2022-10-11T18:36:34.963Z,101904.00
2022-10-11T18:39:07.304Z,101909.00
2022-10-11T18:41:38.619Z,101901.00
2022-10-11T18:44:10.913Z,101909.00
2022-10-11T18:46:38.892Z,101897.00
2022-10-11T18:49:08.780Z,101895.00
2022-10-11T18:51:39.826Z,101915.00
2022-10-11T18:54:13.934Z,101903.00
2022-10-11T18:56:44.975Z,101897.00
2022-10-11T18:59:13.049Z,101898.00
2022-10-11T19:01:43.999Z,101902.00
2022-10-11T19:04:16.697Z,101901.00
2022-10-11T19:06:48.289Z,101902.00
2022-10-11T19:09:21.651Z,101901.00
2022-10-11T19:11:50.890Z,101882.00
2022-10-11T19:14:21.957Z,101892.00
2022-10-11T19:16:52.035Z,101903.00
2022-10-11T19:19:24.175Z,101899.00
2022-10-11T19:21:52.381Z,101892.00
2022-10-11T19:24:24.761Z,101887.00
2022-10-11T19:26:57.230Z,101902.00
2022-10-11T19:29:28.972Z,101886.00
2022-10-11T19:32:00.348Z,101871.00
2022-10-11T19:34:32.533Z,101885.00
2022-10-11T19:37:03.332Z,101895.00
2022-10-11T19:39:31.850Z,101892.00
2022-10-11T19:42:00.297Z,101888.00
2022-10-11T19:44:28.369Z,101898.00
2022-10-11T19:46:58.299Z,101901.00
2022-10-11T19:49:29.961Z,101889.00
2022-10-11T19:51:57.923Z,101900.00
2022-10-11T19:54:25.877Z,101900.00
2022-10-11T19:56:53.865Z,101899.00
2022-10-11T19:59:22.283Z,101887.00
2022-10-11T20:01:53.124Z,101893.00
2022-10-11T20:07:12.328Z,101895.00
2022-10-11T20:09:40.350Z,101895.00
2022-10-11T20:12:09.123Z,101894.00
2022-10-11T20:14:37.222Z,101897.00
2022-10-11T20:17:05.231Z,101893.00
2022-10-11T20:19:33.210Z,101890.00
2022-10-11T20:22:01.424Z,101896.00
2022-10-11T20:24:33.480Z,101894.00
2022-10-11T20:27:03.400Z,101903.00
2022-10-11T20:29:31.860Z,101865.00
2022-10-11T20:32:00.026Z,101897.00
2022-10-11T20:34:28.646Z,101897.00
2022-10-11T20:36:56.640Z,101899.00
2022-10-11T20:39:25.307Z,101885.00
2022-10-11T20:41:54.852Z,101906.00
2022-10-11T20:44:22.916Z,101897.00
2022-10-11T20:46:51.187Z,101910.00
2022-10-11T20:49:20.571Z,101901.00
2022-10-11T20:51:48.799Z,101913.00
2022-10-11T20:54:17.771Z,101903.00
2022-10-11T20:56:45.760Z,101903.00
2022-10-11T20:59:15.167Z,101899.00
